Latest Weather Observations for Wadeye (Port Keats)

IDD60801

Issued at 1:11 pm CST Tuesday 30 November 2021 (issued every 10 minutes, with the page automatically refreshed every 10 minutes)

About weather observations | Map of weather stations | Latest weather observations for NT | Other Formats
Station Details ID: 014948 Name: PORT KEATS AIRPORT Lat: -14.25 Lon: 129.53 Height: 28.0 m
Data from the previous 72 hours. | See also: Recent months at Wadeye (Port Keats)
Date/Time
CST
Temp
°C
App
Temp
°C
Dew
Point
°C
Rel
Hum
%
Delta-T
°C
Wind Press
QNH
hPa
Press
MSL
hPa
Rain since
9am
mm
Dir  Spd
km/h
Gust
km/h
Spd
kts
Gust
kts
30/01:00pm 36.5 35.5 15.6 29 13.2 SSE 15 24 8 13 1006.5 1006.2 0.0
30/12:30pm 35.3 34.7 15.6 31 12.4 ESE 13 22 7 12 1006.9 1006.6 0.0
30/12:00pm 35.0 34.8 15.8 31 12.1 SSE 11 24 6 13 1007.3 1007.0 0.0
30/11:30am 34.9 35.1 17.6 35 11.2 S 13 20 7 11 1007.9 1007.7 0.0
30/11:00am 34.0 34.9 19.3 42 9.7 SSW 13 26 7 14 1008.2 1008.0 0.0
30/10:30am 33.6 35.8 20.4 46 8.8 S 9 19 5 10 1008.7 1008.5 0.0
30/10:00am 33.0 34.2 19.1 43 9.1 SSW 11 20 6 11 1009.0 1008.8 0.0
30/09:30am 32.5 35.5 22.0 54 7.2 S 9 13 5 7 1009.0 1008.8 0.0
30/09:00am 31.4 34.4 22.7 60 6.0 SSW 11 17 6 9 1008.9 1008.7 0.0
30/08:30am 30.9 33.9 23.3 64 5.2 WSW 13 20 7 11 1008.6 1008.4 0.0
30/08:00am 29.6 34.4 24.2 72 3.8 SW 6 9 3 5 1008.2 1008.0 0.0
30/07:30am 28.1 33.6 24.1 79 2.8 SW 2 6 1 3 1008.1 1007.9 0.0
30/07:00am 26.3 31.0 24.0 87 1.6 SSW 6 7 3 4 1007.8 1007.6 0.0
30/06:30am 25.7 30.7 23.9 90 1.2 S 4 7 2 4 1007.4 1007.1 0.0
30/06:00am 25.4 30.6 23.6 90 1.2 SSW 2 6 1 3 1007.1 1006.8 0.0
30/05:30am 25.5 31.2 23.7 90 1.2 CALM 0 0 0 0 1007.0 1006.7 0.0
30/05:00am 25.5 29.8 23.7 90 1.2 SSW 7 9 4 5 1006.9 1006.6 0.0
30/04:30am 25.4 30.2 23.5 89 1.3 S 4 7 2 4 1006.9 1006.6 0.0
30/04:00am 25.6 31.3 23.7 89 1.3 CALM 0 0 0 0 1007.0 1006.7 0.0
30/03:30am 25.8 31.5 23.8 89 1.4 CALM 0 0 0 0 1006.9 1006.6 0.0
30/03:00am 26.0 31.8 23.9 88 1.4 CALM 0 0 0 0 1007.1 1006.8 0.0
30/02:30am 26.8 33.0 24.6 88 1.5 CALM 0 0 0 0 1007.1 1006.8 0.0
30/02:00am 26.3 32.1 24.0 87 1.6 CALM 0 0 0 0 1007.3 1007.0 0.0
30/01:30am 26.4 32.4 24.2 88 1.5 CALM 0 0 0 0 1007.3 1007.0 0.0
30/01:00am 26.6 32.7 24.4 88 1.5 CALM 0 0 0 0 1007.5 1007.3 0.0
30/12:30am 26.4 32.3 24.1 87 1.6 CALM 0 0 0 0 1007.6 1007.4 0.0
30/12:00am 26.1 31.8 23.8 87 1.6 CALM 0 0 0 0 1007.8 1007.6 0.0
 
Date/Time
CST
Temp
°C
App
Temp
°C
Dew
Point
°C
Rel
Hum
%
Delta-T
°C
Wind Press
QNH
hPa
Press
MSL
hPa
Rain since
9am
mm
Dir  Spd
km/h
Gust
km/h
Spd
kts
Gust
kts
29/11:30pm 26.0 31.7 23.7 87 1.6 CALM 0 7 0 4 1008.0 1007.8 0.0
29/11:00pm 26.6 32.3 23.7 84 2.0 CALM 0 6 0 3 1008.0 1007.8 0.0
29/10:30pm 27.4 32.9 24.1 82 2.3 NW 2 7 1 4 1007.9 1007.7 0.0
29/10:00pm 27.7 33.6 24.1 81 2.5 CALM 0 0 0 0 1007.7 1007.5 0.0
29/09:30pm 27.8 32.3 23.6 78 2.9 WSW 6 7 3 4 1007.5 1007.3 0.0
29/09:00pm 28.7 33.3 23.8 75 3.4 W 6 7 3 4 1007.4 1007.1 0.0
29/08:30pm 29.5 34.0 23.7 71 4.0 WNW 6 7 3 4 1007.3 1007.0 0.0
29/08:00pm 29.8 34.2 23.5 69 4.3 W 6 9 3 5 1007.2 1006.9 0.0
29/07:30pm 30.2 34.4 23.4 67 4.7 W 7 11 4 6 1006.8 1006.5 0.0
29/07:00pm 30.9 34.5 23.0 62 5.4 W 9 13 5 7 1006.3 1006.0 0.0
29/06:30pm 32.0 35.0 22.7 58 6.4 W 11 17 6 9 1006.1 1005.8 0.0
29/06:00pm 32.7 35.6 22.5 55 7.0 W 11 17 6 9 1005.7 1005.4 0.0
29/05:30pm 32.8 35.5 22.9 56 6.8 WNW 13 22 7 12 1005.7 1005.4 0.0
29/05:00pm 33.0 35.3 22.7 54 7.1 W 15 24 8 13 1005.4 1005.1 0.0
29/04:30pm 32.7 34.6 22.8 56 6.8 W 17 32 9 17 1005.4 1005.1 0.0
29/04:00pm 33.1 35.4 23.4 56 6.7 WSW 17 28 9 15 1005.4 1005.1 0.0
29/03:30pm 33.3 35.3 23.0 54 7.1 W 17 26 9 14 1005.8 1005.5 0.0
29/03:00pm 33.6 36.5 23.9 57 6.8 WSW 15 24 8 13 1006.0 1005.7 0.0
29/02:30pm 33.7 36.4 23.4 55 7.2 WSW 15 22 8 12 1006.5 1006.2 0.0
29/02:00pm 33.3 36.1 23.0 54 7.1 W 13 20 7 11 1006.7 1006.4 0.0
29/01:30pm 33.0 35.8 23.6 57 6.5 WNW 15 22 8 12 1007.0 1006.7 0.0
29/01:00pm 33.4 35.5 23.1 54 7.1 W 17 24 9 13 1007.6 1007.4 0.0
29/12:30pm 34.3 36.5 20.3 44 9.4 ENE 9 13 5 7 1008.1 1007.9 0.0
29/12:00pm 35.1 35.1 18.2 36 11.0 ESE 15 22 8 12 1008.4 1008.2 0.0
29/11:30am 33.6 33.8 19.3 43 9.4 SE 17 22 9 12 1008.8 1008.6 0.0
29/11:00am 33.7 36.1 20.8 46 8.7 NE 9 15 5 8 1009.1 1008.9 0.0
29/10:30am 32.9 36.7 22.7 55 7.0 ESE 7 13 4 7 1009.3 1009.1 0.0
29/10:00am 32.2 35.0 22.3 56 6.8 S 11 20 6 11 1009.6 1009.4 0.0
29/09:30am 31.1 34.2 23.5 64 5.3 SW 13 17 7 9 1009.7 1009.5 0.0
29/09:00am 30.8 34.6 24.0 67 4.7 S 11 17 6 9 1009.7 1009.5 0.0
29/08:30am 30.0 34.8 24.2 71 4.0 S 6 11 3 6 1009.5 1009.3 0.0
29/08:00am 28.7 33.4 24.0 76 3.3 S 6 9 3 5 1009.3 1009.1 0.0
29/07:30am 26.5 31.0 23.0 81 2.4 ESE 4 9 2 5 1008.9 1008.7 0.0
29/07:00am 25.1 30.3 22.8 87 1.6 CALM 0 0 0 0 1008.4 1008.2 0.0
29/06:30am 24.2 29.1 22.3 89 1.3 CALM 0 0 0 0 1008.2 1008.0 0.0
29/06:00am 24.6 28.0 22.7 89 1.3 SSE 9 13 5 7 1007.9 1007.7 0.0
29/05:30am 24.3 29.2 22.4 89 1.3 CALM 0 0 0 0 1007.3 1007.0 0.0
29/05:00am 24.8 29.8 22.5 87 1.5 CALM 0 0 0 0 1007.0 1006.7 0.0
29/04:30am 24.9 30.1 22.8 88 1.4 CALM 0 0 0 0 1006.8 1006.5 0.0
29/04:00am 25.0 29.8 22.9 88 1.4 ENE 2 7 1 4 1006.8 1006.5 0.0
29/03:30am 24.8 29.3 23.0 90 1.2 S 4 7 2 4 1006.6 1006.3 0.0
29/03:00am 25.2 30.5 23.1 88 1.4 CALM 0 0 0 0 1006.7 1006.4 0.0
29/02:30am 25.7 31.0 23.7 89 1.4 SE 2 9 1 5 1006.7 1006.4 0.0
29/02:00am 24.9 29.4 23.0 89 1.3 S 4 7 2 4 1006.7 1006.4 0.0
29/01:30am 24.7 29.8 22.6 88 1.4 CALM 0 0 0 0 1006.7 1006.4 0.0
29/01:00am 25.3 30.3 23.2 88 1.4 SE 2 7 1 4 1007.1 1006.8 0.0
29/12:30am 25.0 30.1 22.7 87 1.6 CALM 0 0 0 0 1007.5 1007.3 0.0
29/12:00am 25.7 30.8 22.6 83 2.1 CALM 0 0 0 0 1007.9 1007.7 0.0
 
Date/Time
CST
Temp
°C
App
Temp
°C
Dew
Point
°C
Rel
Hum
%
Delta-T
°C
Wind Press
QNH
hPa
Press
MSL
hPa
Rain since
9am
mm
Dir  Spd
km/h
Gust
km/h
Spd
kts
Gust
kts
28/11:30pm 26.4 30.7 22.7 80 2.5 NNE 4 7 2 4 1008.1 1007.9 0.0
28/11:00pm 26.5 30.4 22.6 79 2.6 NNE 6 9 3 5 1008.4 1008.2 0.0
28/10:30pm 27.0 30.7 22.2 75 3.2 N 6 7 3 4 1008.4 1008.2 0.0
28/10:00pm 26.8 29.5 22.2 76 3.1 NNE 11 15 6 8 1008.5 1008.3 0.0
28/09:30pm 27.2 30.4 22.4 75 3.2 NNE 9 11 5 6 1008.4 1008.2 0.0
28/09:00pm 27.0 30.9 22.6 77 3.0 NE 6 9 3 5 1008.1 1007.9 0.0
28/08:30pm 27.2 32.0 22.2 74 3.4 CALM 0 0 0 0 1007.7 1007.5 0.0
28/08:00pm 27.1 30.6 21.8 73 3.5 SSW 6 9 3 5 1007.4 1007.1 0.0
28/07:30pm 27.8 31.2 20.9 66 4.6 WSW 4 7 2 4 1007.0 1006.7 0.0
28/07:00pm 28.8 32.5 20.8 62 5.3 W 2 7 1 4 1006.7 1006.4 0.0
28/06:30pm 29.3 32.3 21.3 62 5.4 NNW 7 11 4 6 1006.7 1006.4 0.0
28/06:00pm 29.1 30.1 21.1 62 5.3 N 17 24 9 13 1006.6 1006.3 0.0
28/05:30pm 29.9 32.6 20.7 57 6.1 N 7 15 4 8 1006.4 1006.1 0.0
28/05:00pm 28.7 29.8 20.4 60 5.5 NNW 15 19 8 10 1006.3 1006.0 0.0
28/04:30pm 26.4 26.2 21.2 73 3.5 NNW 24 33 13 18 1006.2 1005.9 0.0
28/04:16pm 27.3 27.5 22.0 73 3.6 N 24 33 13 18 1006.4 1006.1 0.0
28/04:06pm 27.6 31.1 24.2 82 2.4 WNW 13 19 7 10 1006.3 1006.0 0.0
28/04:00pm 26.4 30.1 22.5 79 2.6 W 7 11 4 6 1006.4 1006.1 0.0
28/03:30pm 29.6 28.4 19.3 54 6.7 ESE 24 48 13 26 1006.9 1006.6 0.0
28/03:25pm 32.0 33.4 20.3 50 7.8 ENE 13 32 7 17 1007.1 1006.8 0.0
28/03:15pm 33.1 34.6 21.3 50 8.0 NNW 15 20 8 11 1006.5 1006.2 0.0
28/03:00pm 32.2 34.2 20.8 51 7.6 WSW 11 15 6 8 1006.7 1006.4 0.0
28/02:50pm 32.3 33.7 21.8 54 7.1 WSW 17 24 9 13 1007.0 1006.7 0.0
28/02:40pm 31.9 33.7 22.6 58 6.4 WNW 17 24 9 13 1007.1 1006.8 0.0
28/02:30pm 31.6 34.1 23.2 61 5.8 W 15 22 8 12 1007.2 1006.9 0.0
28/02:00pm 32.4 34.2 22.5 56 6.8 W 17 28 9 15 1007.6 1007.4 0.0
28/01:30pm 35.0 36.1 17.2 34 11.5 ESE 7 13 4 7 1008.0 1007.8 0.0
28/01:00pm 33.6 34.2 18.5 40 9.8 ENE 13 19 7 10 1008.6 1008.4 0.0
28/12:30pm 34.5 36.2 19.3 40 10.1 ENE 9 17 5 9 1009.0 1008.8 0.0
28/12:00pm 33.8 35.9 20.2 44 9.1 E 9 20 5 11 1009.3 1009.1 0.0
28/11:30am 33.1 33.9 19.9 45 8.8 ENE 15 20 8 11 1009.7 1009.5 0.0
28/11:00am 33.0 34.7 20.2 47 8.5 E 11 20 6 11 1009.8 1009.6 0.0
28/10:30am 32.9 34.7 20.4 47 8.3 ENE 11 20 6 11 1010.2 1010.0 0.0
28/10:00am 32.5 34.2 20.1 48 8.2 E 11 17 6 9 1010.4 1010.2 0.0
28/09:30am 31.6 33.7 21.7 55 6.7 E 13 17 7 9 1010.3 1010.1 0.0
28/09:00am 31.4 33.5 21.0 54 7.0 E 11 15 6 8 1010.4 1010.2 0.0
28/08:30am 30.9 34.2 20.8 55 6.7 E 4 9 2 5 1010.1 1009.9 0.0
28/08:00am 29.8 34.4 21.7 61 5.5 CALM 0 0 0 0 1009.8 1009.6 0.0
28/07:30am 27.7 32.4 22.6 74 3.5 S 2 6 1 3 1009.7 1009.5 0.0
28/07:00am 25.7 29.8 23.0 85 1.8 S 6 9 3 5 1009.3 1009.1 0.0
28/06:30am 24.9 28.9 22.8 88 1.4 S 6 7 3 4 1009.0 1008.8 0.0
28/06:00am 25.4 30.7 23.1 87 1.6 CALM 0 0 0 0 1008.3 1008.1 0.0
28/05:30am 25.5 29.5 22.8 85 1.8 SE 6 9 3 5 1008.0 1007.8 0.0
28/05:00am 25.9 30.0 23.2 85 1.8 SE 7 9 4 5 1007.8 1007.6 0.0
28/04:30am 25.5 29.3 23.4 88 1.4 SSE 9 11 5 6 1007.6 1007.4 0.0
28/04:00am 24.7 29.5 22.9 90 1.2 S 2 6 1 3 1007.3 1007.0 0.0
28/03:30am 24.6 28.6 22.7 89 1.3 SSE 6 7 3 4 1007.1 1006.8 0.0
28/03:00am 24.7 29.9 22.8 89 1.3 CALM 0 0 0 0 1007.0 1006.7 0.0
28/02:30am 24.8 30.0 22.9 89 1.3 CALM 0 0 0 0 1007.1 1006.8 0.0
28/02:00am 25.0 30.2 22.9 88 1.4 CALM 0 0 0 0 1007.3 1007.0 0.0
28/01:30am 25.9 31.7 23.9 89 1.4 CALM 0 0 0 0 1007.6 1007.4 0.0
28/01:00am 25.1 30.4 23.0 88 1.4 CALM 0 0 0 0 1007.8 1007.6 0.0
28/12:30am 25.4 30.8 23.3 88 1.4 CALM 0 0 0 0 1008.2 1008.0 0.0
28/12:00am 25.3 30.6 23.0 87 1.6 CALM 0 0 0 0 1008.4 1008.2 0.0
 
Date/Time
CST
Temp
°C
App
Temp
°C
Dew
Point
°C
Rel
Hum
%
Delta-T
°C
Wind Press
QNH
hPa
Press
MSL
hPa
Rain since
9am
mm
Dir  Spd
km/h
Gust
km/h
Spd
kts
Gust
kts
27/11:30pm 25.5 30.8 23.0 86 1.7 CALM 0 0 0 0 1008.6 1008.4 0.0
27/11:00pm 25.8 31.0 22.9 84 2.0 CALM 0 0 0 0 1008.7 1008.5 0.0
27/10:30pm 26.6 32.2 23.5 83 2.1 CALM 0 0 0 0 1008.5 1008.3 0.0
27/10:00pm 26.6 31.5 23.1 81 2.4 SW 2 6 1 3 1008.6 1008.4 0.0
27/09:30pm 27.0 32.3 23.0 79 2.7 CALM 0 6 0 3 1008.2 1008.0 0.0
27/09:00pm 27.5 32.7 22.9 76 3.1 CALM 0 6 0 3 1008.0 1007.8 0.0
27/08:30pm 28.1 32.2 23.0 74 3.5 WSW 6 7 3 4 1007.9 1007.7 0.0
27/08:00pm 28.9 33.2 22.6 69 4.3 WNW 4 9 2 5 1007.5 1007.3 0.0
27/07:30pm 29.6 33.1 22.8 67 4.7 NW 9 15 5 8 1007.4 1007.1 0.0
27/07:00pm 30.6 33.5 22.5 62 5.5 NNW 11 15 6 8 1007.1 1006.8 0.0
27/06:30pm 31.4 34.5 22.1 57 6.3 NW 9 15 5 8 1006.8 1006.5 0.0
27/06:00pm 32.9 34.6 19.4 45 8.9 NE 9 19 5 10 1006.6 1006.3 0.0
27/05:30pm 33.4 33.9 18.3 40 9.8 ENE 13 19 7 10 1006.5 1006.2 0.0
27/05:00pm 32.8 32.7 17.0 38 10.1 ENE 13 22 7 12 1006.4 1006.1 0.0
27/04:30pm 33.5 34.3 20.6 46 8.7 ENE 17 24 9 13 1006.3 1006.0 0.0
27/04:00pm 32.9 33.0 18.3 42 9.5 ENE 15 24 8 13 1006.3 1006.0 0.0
27/03:30pm 32.9 33.2 18.7 43 9.3 NE 15 22 8 12 1006.6 1006.3 0.0
27/03:00pm 32.5 33.0 18.3 43 9.2 ENE 13 17 7 9 1007.2 1006.9 0.0
27/02:30pm 31.9 33.0 18.8 45 8.5 E 11 17 6 9 1007.5 1007.3 0.0
27/02:00pm 31.6 33.8 19.2 47 8.1 ENE 6 11 3 6 1007.9 1007.7 0.0
27/01:30pm 31.0 33.3 20.6 54 6.9 ENE 9 15 5 8 1008.1 1007.9 0.0

Other formats

Comma delimited format used in spreadsheet applications
http://www.bom.gov.au/fwo/IDD60801/IDD60801.95111.axf

JavaScript Object Notation format (JSON) in row-major order
http://www.bom.gov.au/fwo/IDD60801/IDD60801.95111.json

Data quality

Most of these data are generated automatically and are frequently updated. Quality checks on data are not normally performed. It is possible for incorrect values to appear. Refer to information at About Latest Weather Observations and please check the disclaimer before using these data.